sensor_id;sensor_type;location;lat;lon;timestamp;P1;durP1;ratioP1;P2;durP2;ratioP2
17864;SDS011;9058;52.018;4.202;2022-12-29T00:00:52;2.67;;;2.47;;
17864;SDS011;9058;52.018;4.202;2022-12-29T00:03:18;2.45;;;2.25;;
17864;SDS011;9058;52.018;4.202;2022-12-29T00:05:44;4.75;;;2.33;;
17864;SDS011;9058;52.018;4.202;2022-12-29T00:08:11;4.20;;;2.30;;
17864;SDS011;9058;52.018;4.202;2022-12-29T00:10:37;2.80;;;2.00;;
17864;SDS011;9058;52.018;4.202;2022-12-29T00:13:06;3.17;;;2.30;;
17864;SDS011;9058;52.018;4.202;2022-12-29T00:16:06;4.35;;;2.05;;
17864;SDS011;9058;52.018;4.202;2022-12-29T00:18:32;3.72;;;2.08;;
17864;SDS011;9058;52.018;4.202;2022-12-29T00:20:59;2.80;;;2.35;;
17864;SDS011;9058;52.018;4.202;2022-12-29T00:23:42;4.50;;;2.90;;
17864;SDS011;9058;52.018;4.202;2022-12-29T00:26:26;2.50;;;1.90;;
17864;SDS011;9058;52.018;4.202;2022-12-29T00:29:12;2.20;;;1.80;;
17864;SDS011;9058;52.018;4.202;2022-12-29T00:32:03;1.88;;;1.75;;
17864;SDS011;9058;52.018;4.202;2022-12-29T00:34:47;2.95;;;2.00;;
17864;SDS011;9058;52.018;4.202;2022-12-29T00:37:31;3.45;;;1.88;;
17864;SDS011;9058;52.018;4.202;2022-12-29T00:40:11;2.42;;;1.77;;
17864;SDS011;9058;52.018;4.202;2022-12-29T00:42:55;2.13;;;1.52;;
17864;SDS011;9058;52.018;4.202;2022-12-29T00:45:41;2.88;;;2.20;;
17864;SDS011;9058;52.018;4.202;2022-12-29T00:48:07;2.30;;;1.77;;
17864;SDS011;9058;52.018;4.202;2022-12-29T00:50:33;2.20;;;1.98;;
17864;SDS011;9058;52.018;4.202;2022-12-29T00:52:59;3.15;;;2.17;;
17864;SDS011;9058;52.018;4.202;2022-12-29T00:55:25;2.88;;;1.90;;
17864;SDS011;9058;52.018;4.202;2022-12-29T00:57:52;2.53;;;1.85;;
17864;SDS011;9058;52.018;4.202;2022-12-29T01:00:18;2.58;;;1.90;;
17864;SDS011;9058;52.018;4.202;2022-12-29T01:02:46;2.15;;;1.60;;
17864;SDS011;9058;52.018;4.202;2022-12-29T01:05:13;1.90;;;1.63;;
17864;SDS011;9058;52.018;4.202;2022-12-29T01:07:40;2.47;;;1.67;;
17864;SDS011;9058;52.018;4.202;2022-12-29T01:10:06;3.00;;;1.42;;
17864;SDS011;9058;52.018;4.202;2022-12-29T01:12:39;2.53;;;1.33;;
17864;SDS011;9058;52.018;4.202;2022-12-29T01:15:07;4.22;;;1.60;;
17864;SDS011;9058;52.018;4.202;2022-12-29T01:17:34;2.70;;;0.90;;
17864;SDS011;9058;52.018;4.202;2022-12-29T01:20:02;5.45;;;1.90;;
17864;SDS011;9058;52.018;4.202;2022-12-29T01:22:29;3.45;;;1.10;;
17864;SDS011;9058;52.018;4.202;2022-12-29T01:24:56;3.75;;;1.35;;
17864;SDS011;9058;52.018;4.202;2022-12-29T01:27:22;1.27;;;0.82;;
17864;SDS011;9058;52.018;4.202;2022-12-29T01:29:48;4.82;;;1.00;;
17864;SDS011;9058;52.018;4.202;2022-12-29T01:32:15;5.20;;;1.08;;
17864;SDS011;9058;52.018;4.202;2022-12-29T01:34:41;6.10;;;1.25;;
17864;SDS011;9058;52.018;4.202;2022-12-29T01:37:09;2.08;;;0.80;;
17864;SDS011;9058;52.018;4.202;2022-12-29T01:39:35;3.70;;;0.80;;
17864;SDS011;9058;52.018;4.202;2022-12-29T01:42:01;3.00;;;1.27;;
17864;SDS011;9058;52.018;4.202;2022-12-29T01:44:47;4.78;;;1.27;;
17864;SDS011;9058;52.018;4.202;2022-12-29T01:47:14;2.75;;;0.98;;
17864;SDS011;9058;52.018;4.202;2022-12-29T01:49:43;4.25;;;1.55;;
17864;SDS011;9058;52.018;4.202;2022-12-29T01:52:11;9.95;;;1.52;;
17864;SDS011;9058;52.018;4.202;2022-12-29T01:54:38;7.72;;;1.75;;
17864;SDS011;9058;52.018;4.202;2022-12-29T01:57:08;5.20;;;1.45;;
17864;SDS011;9058;52.018;4.202;2022-12-29T01:59:38;3.67;;;1.33;;
17864;SDS011;9058;52.018;4.202;2022-12-29T02:02:05;8.10;;;1.42;;
17864;SDS011;9058;52.018;4.202;2022-12-29T02:04:32;6.38;;;1.30;;
17864;SDS011;9058;52.018;4.202;2022-12-29T02:07:01;7.63;;;2.00;;
17864;SDS011;9058;52.018;4.202;2022-12-29T02:09:29;6.65;;;1.60;;
17864;SDS011;9058;52.018;4.202;2022-12-29T02:11:55;9.15;;;1.70;;
17864;SDS011;9058;52.018;4.202;2022-12-29T02:14:22;7.65;;;1.27;;
17864;SDS011;9058;52.018;4.202;2022-12-29T02:16:53;4.78;;;1.90;;
17864;SDS011;9058;52.018;4.202;2022-12-29T02:19:44;8.05;;;1.00;;
17864;SDS011;9058;52.018;4.202;2022-12-29T02:22:18;10.60;;;1.17;;
17864;SDS011;9058;52.018;4.202;2022-12-29T02:24:59;5.95;;;1.83;;
17864;SDS011;9058;52.018;4.202;2022-12-29T02:27:36;4.57;;;1.25;;
17864;SDS011;9058;52.018;4.202;2022-12-29T02:30:08;8.18;;;2.13;;
17864;SDS011;9058;52.018;4.202;2022-12-29T02:32:40;5.20;;;1.58;;
17864;SDS011;9058;52.018;4.202;2022-12-29T02:35:13;10.40;;;3.30;;
17864;SDS011;9058;52.018;4.202;2022-12-29T02:37:42;15.60;;;3.03;;
17864;SDS011;9058;52.018;4.202;2022-12-29T02:40:13;11.00;;;2.35;;
17864;SDS011;9058;52.018;4.202;2022-12-29T02:42:43;10.23;;;2.30;;
17864;SDS011;9058;52.018;4.202;2022-12-29T02:45:13;10.65;;;2.33;;
17864;SDS011;9058;52.018;4.202;2022-12-29T02:47:45;9.05;;;1.95;;
17864;SDS011;9058;52.018;4.202;2022-12-29T02:50:14;12.30;;;2.97;;
17864;SDS011;9058;52.018;4.202;2022-12-29T02:52:42;11.57;;;2.45;;
17864;SDS011;9058;52.018;4.202;2022-12-29T02:55:11;10.20;;;2.28;;
17864;SDS011;9058;52.018;4.202;2022-12-29T02:57:37;12.82;;;2.25;;
17864;SDS011;9058;52.018;4.202;2022-12-29T03:00:05;11.90;;;2.38;;
17864;SDS011;9058;52.018;4.202;2022-12-29T03:02:38;7.93;;;2.20;;
17864;SDS011;9058;52.018;4.202;2022-12-29T03:05:11;8.43;;;1.92;;
17864;SDS011;9058;52.018;4.202;2022-12-29T03:07:40;10.77;;;2.10;;
17864;SDS011;9058;52.018;4.202;2022-12-29T03:10:12;8.52;;;2.03;;
17864;SDS011;9058;52.018;4.202;2022-12-29T03:12:42;10.00;;;2.15;;
17864;SDS011;9058;52.018;4.202;2022-12-29T03:15:31;14.45;;;2.67;;
17864;SDS011;9058;52.018;4.202;2022-12-29T03:18:19;14.13;;;2.50;;
17864;SDS011;9058;52.018;4.202;2022-12-29T03:20:49;13.45;;;2.65;;
17864;SDS011;9058;52.018;4.202;2022-12-29T03:23:18;11.48;;;3.20;;
17864;SDS011;9058;52.018;4.202;2022-12-29T03:25:46;14.40;;;2.90;;
17864;SDS011;9058;52.018;4.202;2022-12-29T03:28:16;13.82;;;2.65;;
17864;SDS011;9058;52.018;4.202;2022-12-29T03:30:44;9.40;;;2.20;;
17864;SDS011;9058;52.018;4.202;2022-12-29T03:33:12;12.55;;;2.25;;
17864;SDS011;9058;52.018;4.202;2022-12-29T03:35:40;8.10;;;3.25;;
17864;SDS011;9058;52.018;4.202;2022-12-29T03:38:10;9.32;;;1.90;;
17864;SDS011;9058;52.018;4.202;2022-12-29T03:40:38;8.32;;;1.80;;
17864;SDS011;9058;52.018;4.202;2022-12-29T03:43:06;9.02;;;2.08;;
17864;SDS011;9058;52.018;4.202;2022-12-29T03:45:32;8.20;;;1.90;;
17864;SDS011;9058;52.018;4.202;2022-12-29T03:47:59;7.30;;;1.17;;
17864;SDS011;9058;52.018;4.202;2022-12-29T03:50:25;8.90;;;1.20;;
17864;SDS011;9058;52.018;4.202;2022-12-29T03:52:51;7.53;;;2.38;;
17864;SDS011;9058;52.018;4.202;2022-12-29T03:55:19;9.57;;;1.80;;
17864;SDS011;9058;52.018;4.202;2022-12-29T03:57:45;15.77;;;2.97;;
17864;SDS011;9058;52.018;4.202;2022-12-29T04:00:12;9.85;;;2.17;;
17864;SDS011;9058;52.018;4.202;2022-12-29T04:02:39;10.45;;;2.58;;
17864;SDS011;9058;52.018;4.202;2022-12-29T04:05:05;8.38;;;2.15;;
17864;SDS011;9058;52.018;4.202;2022-12-29T04:07:32;13.13;;;2.90;;
17864;SDS011;9058;52.018;4.202;2022-12-29T04:09:59;10.90;;;1.45;;
17864;SDS011;9058;52.018;4.202;2022-12-29T04:12:27;13.82;;;3.17;;
17864;SDS011;9058;52.018;4.202;2022-12-29T04:14:53;9.82;;;2.63;;
17864;SDS011;9058;52.018;4.202;2022-12-29T04:17:19;15.50;;;2.90;;
17864;SDS011;9058;52.018;4.202;2022-12-29T04:19:46;13.52;;;2.83;;
17864;SDS011;9058;52.018;4.202;2022-12-29T04:22:12;14.48;;;3.08;;
17864;SDS011;9058;52.018;4.202;2022-12-29T04:24:38;16.83;;;2.85;;
17864;SDS011;9058;52.018;4.202;2022-12-29T04:27:05;13.65;;;2.20;;
17864;SDS011;9058;52.018;4.202;2022-12-29T04:29:33;10.43;;;2.63;;
17864;SDS011;9058;52.018;4.202;2022-12-29T04:32:00;14.15;;;2.30;;
17864;SDS011;9058;52.018;4.202;2022-12-29T04:34:26;13.38;;;2.15;;
17864;SDS011;9058;52.018;4.202;2022-12-29T04:36:52;12.70;;;3.47;;
17864;SDS011;9058;52.018;4.202;2022-12-29T04:39:19;10.15;;;2.65;;
17864;SDS011;9058;52.018;4.202;2022-12-29T04:41:45;10.00;;;2.15;;
17864;SDS011;9058;52.018;4.202;2022-12-29T04:44:11;14.23;;;2.92;;
17864;SDS011;9058;52.018;4.202;2022-12-29T04:46:39;12.77;;;2.42;;
17864;SDS011;9058;52.018;4.202;2022-12-29T04:49:05;23.95;;;3.30;;
17864;SDS011;9058;52.018;4.202;2022-12-29T04:51:33;11.00;;;2.03;;
17864;SDS011;9058;52.018;4.202;2022-12-29T04:53:59;14.02;;;2.10;;
17864;SDS011;9058;52.018;4.202;2022-12-29T04:56:26;17.63;;;3.13;;
17864;SDS011;9058;52.018;4.202;2022-12-29T04:58:52;11.32;;;2.13;;
17864;SDS011;9058;52.018;4.202;2022-12-29T05:01:18;11.20;;;2.20;;
17864;SDS011;9058;52.018;4.202;2022-12-29T05:03:46;8.93;;;2.28;;
17864;SDS011;9058;52.018;4.202;2022-12-29T05:06:13;14.25;;;3.50;;
17864;SDS011;9058;52.018;4.202;2022-12-29T05:08:39;13.80;;;2.92;;
17864;SDS011;9058;52.018;4.202;2022-12-29T05:11:05;7.50;;;1.70;;
17864;SDS011;9058;52.018;4.202;2022-12-29T05:13:32;7.28;;;1.80;;
17864;SDS011;9058;52.018;4.202;2022-12-29T05:15:58;11.18;;;2.25;;
17864;SDS011;9058;52.018;4.202;2022-12-29T05:18:24;11.57;;;2.15;;
17864;SDS011;9058;52.018;4.202;2022-12-29T05:20:52;10.57;;;2.10;;
17864;SDS011;9058;52.018;4.202;2022-12-29T05:23:18;11.65;;;2.88;;
17864;SDS011;9058;52.018;4.202;2022-12-29T05:25:45;9.68;;;2.05;;
17864;SDS011;9058;52.018;4.202;2022-12-29T05:28:11;10.55;;;2.05;;
17864;SDS011;9058;52.018;4.202;2022-12-29T05:30:38;14.45;;;2.42;;
17864;SDS011;9058;52.018;4.202;2022-12-29T05:33:04;18.23;;;3.95;;
17864;SDS011;9058;52.018;4.202;2022-12-29T05:35:31;11.00;;;2.95;;
17864;SDS011;9058;52.018;4.202;2022-12-29T05:37:59;15.57;;;3.15;;
17864;SDS011;9058;52.018;4.202;2022-12-29T05:40:25;19.33;;;3.15;;
17864;SDS011;9058;52.018;4.202;2022-12-29T05:42:51;14.38;;;3.10;;
17864;SDS011;9058;52.018;4.202;2022-12-29T05:45:18;18.67;;;3.35;;
17864;SDS011;9058;52.018;4.202;2022-12-29T05:47:44;15.35;;;3.05;;
17864;SDS011;9058;52.018;4.202;2022-12-29T05:50:11;17.80;;;2.10;;
17864;SDS011;9058;52.018;4.202;2022-12-29T05:52:37;18.60;;;3.10;;
17864;SDS011;9058;52.018;4.202;2022-12-29T05:55:05;14.95;;;3.45;;
17864;SDS011;9058;52.018;4.202;2022-12-29T05:57:31;13.02;;;2.25;;
17864;SDS011;9058;52.018;4.202;2022-12-29T05:59:58;12.80;;;2.35;;
17864;SDS011;9058;52.018;4.202;2022-12-29T06:02:25;16.10;;;3.20;;
17864;SDS011;9058;52.018;4.202;2022-12-29T06:04:51;16.17;;;3.53;;
17864;SDS011;9058;52.018;4.202;2022-12-29T06:07:18;12.15;;;3.28;;
17864;SDS011;9058;52.018;4.202;2022-12-29T06:09:44;12.52;;;3.03;;
17864;SDS011;9058;52.018;4.202;2022-12-29T06:12:12;15.20;;;2.67;;
17864;SDS011;9058;52.018;4.202;2022-12-29T06:14:38;11.88;;;3.13;;
17864;SDS011;9058;52.018;4.202;2022-12-29T06:17:04;16.67;;;3.67;;
17864;SDS011;9058;52.018;4.202;2022-12-29T06:19:31;22.92;;;3.42;;
17864;SDS011;9058;52.018;4.202;2022-12-29T06:21:57;20.10;;;2.83;;
17864;SDS011;9058;52.018;4.202;2022-12-29T06:24:23;18.42;;;3.45;;
17864;SDS011;9058;52.018;4.202;2022-12-29T06:26:50;22.52;;;4.82;;
17864;SDS011;9058;52.018;4.202;2022-12-29T06:29:18;19.48;;;3.30;;
17864;SDS011;9058;52.018;4.202;2022-12-29T06:31:45;22.58;;;3.70;;
17864;SDS011;9058;52.018;4.202;2022-12-29T06:34:12;23.13;;;4.10;;
17864;SDS011;9058;52.018;4.202;2022-12-29T06:36:38;21.00;;;5.10;;
17864;SDS011;9058;52.018;4.202;2022-12-29T06:39:05;19.40;;;3.40;;
17864;SDS011;9058;52.018;4.202;2022-12-29T06:41:32;14.82;;;3.45;;
17864;SDS011;9058;52.018;4.202;2022-12-29T06:43:59;25.15;;;4.10;;
17864;SDS011;9058;52.018;4.202;2022-12-29T06:46:26;19.75;;;4.05;;
17864;SDS011;9058;52.018;4.202;2022-12-29T06:48:53;20.70;;;4.05;;
17864;SDS011;9058;52.018;4.202;2022-12-29T06:51:19;12.70;;;2.72;;
17864;SDS011;9058;52.018;4.202;2022-12-29T06:53:45;20.55;;;3.72;;
17864;SDS011;9058;52.018;4.202;2022-12-29T06:56:12;16.45;;;3.35;;
17864;SDS011;9058;52.018;4.202;2022-12-29T06:58:38;22.67;;;3.40;;
17864;SDS011;9058;52.018;4.202;2022-12-29T07:01:04;22.35;;;3.35;;
17864;SDS011;9058;52.018;4.202;2022-12-29T07:03:32;21.40;;;4.30;;
17864;SDS011;9058;52.018;4.202;2022-12-29T07:05:58;14.70;;;3.55;;
17864;SDS011;9058;52.018;4.202;2022-12-29T07:08:25;11.00;;;2.97;;
17864;SDS011;9058;52.018;4.202;2022-12-29T07:10:51;14.90;;;2.65;;
17864;SDS011;9058;52.018;4.202;2022-12-29T07:13:18;12.05;;;2.63;;
17864;SDS011;9058;52.018;4.202;2022-12-29T07:15:44;10.40;;;3.78;;
17864;SDS011;9058;52.018;4.202;2022-12-29T07:18:10;18.90;;;3.17;;
17864;SDS011;9058;52.018;4.202;2022-12-29T07:20:38;15.80;;;2.72;;
17864;SDS011;9058;52.018;4.202;2022-12-29T07:23:04;12.75;;;3.22;;
17864;SDS011;9058;52.018;4.202;2022-12-29T07:25:31;11.38;;;2.72;;
17864;SDS011;9058;52.018;4.202;2022-12-29T07:27:57;16.08;;;2.95;;
17864;SDS011;9058;52.018;4.202;2022-12-29T07:30:24;11.95;;;2.95;;
17864;SDS011;9058;52.018;4.202;2022-12-29T07:32:50;11.57;;;3.10;;
17864;SDS011;9058;52.018;4.202;2022-12-29T07:35:17;12.90;;;2.53;;
17864;SDS011;9058;52.018;4.202;2022-12-29T07:37:45;15.63;;;3.13;;
17864;SDS011;9058;52.018;4.202;2022-12-29T07:40:12;13.57;;;3.25;;
17864;SDS011;9058;52.018;4.202;2022-12-29T07:42:38;18.48;;;3.53;;
17864;SDS011;9058;52.018;4.202;2022-12-29T07:45:05;13.68;;;2.75;;
17864;SDS011;9058;52.018;4.202;2022-12-29T07:47:31;17.00;;;3.53;;
17864;SDS011;9058;52.018;4.202;2022-12-29T07:49:58;16.05;;;3.22;;
17864;SDS011;9058;52.018;4.202;2022-12-29T07:52:24;15.50;;;2.25;;
17864;SDS011;9058;52.018;4.202;2022-12-29T07:54:52;15.35;;;3.88;;
17864;SDS011;9058;52.018;4.202;2022-12-29T07:57:18;17.80;;;3.00;;
17864;SDS011;9058;52.018;4.202;2022-12-29T07:59:44;19.92;;;3.53;;
17864;SDS011;9058;52.018;4.202;2022-12-29T08:02:11;14.45;;;2.55;;
17864;SDS011;9058;52.018;4.202;2022-12-29T08:04:37;16.85;;;2.88;;
17864;SDS011;9058;52.018;4.202;2022-12-29T08:07:04;20.50;;;3.85;;
17864;SDS011;9058;52.018;4.202;2022-12-29T08:09:30;22.58;;;4.47;;
17864;SDS011;9058;52.018;4.202;2022-12-29T08:11:59;18.90;;;3.20;;
17864;SDS011;9058;52.018;4.202;2022-12-29T08:14:25;12.02;;;2.90;;
17864;SDS011;9058;52.018;4.202;2022-12-29T08:16:51;13.93;;;3.95;;
17864;SDS011;9058;52.018;4.202;2022-12-29T08:19:18;20.00;;;3.28;;
17864;SDS011;9058;52.018;4.202;2022-12-29T08:21:44;15.10;;;3.08;;
17864;SDS011;9058;52.018;4.202;2022-12-29T08:24:10;21.75;;;3.58;;
17864;SDS011;9058;52.018;4.202;2022-12-29T08:26:37;14.80;;;3.47;;
17864;SDS011;9058;52.018;4.202;2022-12-29T08:29:04;14.70;;;4.15;;
17864;SDS011;9058;52.018;4.202;2022-12-29T08:31:31;14.10;;;2.38;;
17864;SDS011;9058;52.018;4.202;2022-12-29T08:33:57;14.68;;;4.03;;
17864;SDS011;9058;52.018;4.202;2022-12-29T08:36:24;17.17;;;3.28;;
17864;SDS011;9058;52.018;4.202;2022-12-29T08:38:51;14.10;;;3.45;;
17864;SDS011;9058;52.018;4.202;2022-12-29T08:41:17;14.95;;;2.70;;
17864;SDS011;9058;52.018;4.202;2022-12-29T08:43:45;11.40;;;2.60;;
17864;SDS011;9058;52.018;4.202;2022-12-29T08:46:12;15.75;;;2.38;;
17864;SDS011;9058;52.018;4.202;2022-12-29T08:48:39;15.68;;;3.38;;
17864;SDS011;9058;52.018;4.202;2022-12-29T08:51:05;19.13;;;2.95;;
17864;SDS011;9058;52.018;4.202;2022-12-29T08:53:32;16.45;;;4.00;;
17864;SDS011;9058;52.018;4.202;2022-12-29T08:55:59;14.35;;;2.17;;
17864;SDS011;9058;52.018;4.202;2022-12-29T08:58:26;17.17;;;2.88;;
17864;SDS011;9058;52.018;4.202;2022-12-29T09:00:53;13.85;;;2.88;;
17864;SDS011;9058;52.018;4.202;2022-12-29T09:03:21;19.58;;;2.88;;
17864;SDS011;9058;52.018;4.202;2022-12-29T09:05:48;17.70;;;3.42;;
17864;SDS011;9058;52.018;4.202;2022-12-29T09:08:15;17.98;;;4.10;;
17864;SDS011;9058;52.018;4.202;2022-12-29T09:10:41;21.25;;;3.90;;
17864;SDS011;9058;52.018;4.202;2022-12-29T09:13:07;17.55;;;3.72;;
17864;SDS011;9058;52.018;4.202;2022-12-29T09:15:34;20.25;;;4.00;;
17864;SDS011;9058;52.018;4.202;2022-12-29T09:18:00;24.65;;;4.15;;
17864;SDS011;9058;52.018;4.202;2022-12-29T09:20:28;25.42;;;5.03;;
17864;SDS011;9058;52.018;4.202;2022-12-29T09:22:54;24.45;;;4.25;;
17864;SDS011;9058;52.018;4.202;2022-12-29T09:25:21;28.90;;;4.60;;
17864;SDS011;9058;52.018;4.202;2022-12-29T09:27:49;19.08;;;3.92;;
17864;SDS011;9058;52.018;4.202;2022-12-29T09:30:17;32.53;;;6.03;;
17864;SDS011;9058;52.018;4.202;2022-12-29T09:32:44;28.30;;;6.07;;
17864;SDS011;9058;52.018;4.202;2022-12-29T09:35:10;26.25;;;4.80;;
17864;SDS011;9058;52.018;4.202;2022-12-29T09:37:38;21.35;;;4.93;;
17864;SDS011;9058;52.018;4.202;2022-12-29T09:40:05;35.17;;;6.25;;
17864;SDS011;9058;52.018;4.202;2022-12-29T09:42:32;33.97;;;6.03;;
17864;SDS011;9058;52.018;4.202;2022-12-29T09:45:04;28.90;;;6.43;;
17864;SDS011;9058;52.018;4.202;2022-12-29T09:47:32;30.92;;;6.20;;
17864;SDS011;9058;52.018;4.202;2022-12-29T09:49:59;31.40;;;6.18;;
17864;SDS011;9058;52.018;4.202;2022-12-29T09:52:32;31.33;;;6.25;;
17864;SDS011;9058;52.018;4.202;2022-12-29T09:55:02;30.08;;;6.50;;
17864;SDS011;9058;52.018;4.202;2022-12-29T09:57:32;37.78;;;6.53;;
17864;SDS011;9058;52.018;4.202;2022-12-29T10:00:01;31.77;;;6.40;;
17864;SDS011;9058;52.018;4.202;2022-12-29T10:02:31;32.58;;;6.85;;
17864;SDS011;9058;52.018;4.202;2022-12-29T10:04:58;32.67;;;5.55;;
17864;SDS011;9058;52.018;4.202;2022-12-29T10:07:27;25.80;;;6.38;;
17864;SDS011;9058;52.018;4.202;2022-12-29T10:09:59;26.80;;;5.32;;
17864;SDS011;9058;52.018;4.202;2022-12-29T10:12:30;26.67;;;5.30;;
17864;SDS011;9058;52.018;4.202;2022-12-29T10:15:04;31.77;;;5.70;;
17864;SDS011;9058;52.018;4.202;2022-12-29T10:17:36;32.08;;;5.43;;
17864;SDS011;9058;52.018;4.202;2022-12-29T10:20:12;30.05;;;6.20;;
17864;SDS011;9058;52.018;4.202;2022-12-29T10:22:49;32.17;;;6.35;;
17864;SDS011;9058;52.018;4.202;2022-12-29T10:25:20;25.10;;;4.82;;
17864;SDS011;9058;52.018;4.202;2022-12-29T10:27:48;24.52;;;5.30;;
17864;SDS011;9058;52.018;4.202;2022-12-29T10:30:15;18.90;;;4.13;;
17864;SDS011;9058;52.018;4.202;2022-12-29T10:32:43;26.67;;;5.45;;
17864;SDS011;9058;52.018;4.202;2022-12-29T10:35:12;21.17;;;3.58;;
17864;SDS011;9058;52.018;4.202;2022-12-29T10:37:42;27.13;;;5.57;;
17864;SDS011;9058;52.018;4.202;2022-12-29T10:40:13;20.58;;;5.22;;
17864;SDS011;9058;52.018;4.202;2022-12-29T10:42:41;21.98;;;4.45;;
17864;SDS011;9058;52.018;4.202;2022-12-29T10:45:12;12.70;;;3.05;;
17864;SDS011;9058;52.018;4.202;2022-12-29T10:47:49;19.98;;;3.63;;
17864;SDS011;9058;52.018;4.202;2022-12-29T10:50:18;19.58;;;3.55;;
17864;SDS011;9058;52.018;4.202;2022-12-29T10:52:44;30.73;;;6.45;;
17864;SDS011;9058;52.018;4.202;2022-12-29T10:55:13;28.00;;;4.95;;
17864;SDS011;9058;52.018;4.202;2022-12-29T10:57:42;24.13;;;4.30;;
17864;SDS011;9058;52.018;4.202;2022-12-29T11:02:46;31.60;;;5.13;;
17864;SDS011;9058;52.018;4.202;2022-12-29T11:05:15;22.65;;;3.88;;
17864;SDS011;9058;52.018;4.202;2022-12-29T11:07:46;22.08;;;4.63;;
17864;SDS011;9058;52.018;4.202;2022-12-29T11:10:16;26.08;;;4.05;;
17864;SDS011;9058;52.018;4.202;2022-12-29T11:12:51;17.58;;;3.85;;
17864;SDS011;9058;52.018;4.202;2022-12-29T11:15:20;12.70;;;2.72;;
17864;SDS011;9058;52.018;4.202;2022-12-29T11:17:48;12.15;;;3.13;;
17864;SDS011;9058;52.018;4.202;2022-12-29T11:20:19;13.38;;;3.25;;
17864;SDS011;9058;52.018;4.202;2022-12-29T11:22:52;10.73;;;2.95;;
17864;SDS011;9058;52.018;4.202;2022-12-29T11:25:20;8.70;;;2.58;;
17864;SDS011;9058;52.018;4.202;2022-12-29T11:27:54;17.38;;;4.25;;
17864;SDS011;9058;52.018;4.202;2022-12-29T11:30:22;13.52;;;3.03;;
17864;SDS011;9058;52.018;4.202;2022-12-29T11:32:51;18.70;;;3.90;;
17864;SDS011;9058;52.018;4.202;2022-12-29T11:35:28;18.45;;;3.35;;
17864;SDS011;9058;52.018;4.202;2022-12-29T11:37:55;8.63;;;2.00;;
17864;SDS011;9058;52.018;4.202;2022-12-29T11:40:22;8.90;;;2.47;;
17864;SDS011;9058;52.018;4.202;2022-12-29T11:42:50;8.57;;;2.15;;
17864;SDS011;9058;52.018;4.202;2022-12-29T11:45:18;6.53;;;1.92;;
17864;SDS011;9058;52.018;4.202;2022-12-29T11:47:47;15.40;;;2.95;;
17864;SDS011;9058;52.018;4.202;2022-12-29T11:50:17;8.82;;;2.42;;
17864;SDS011;9058;52.018;4.202;2022-12-29T11:52:44;6.95;;;1.48;;
17864;SDS011;9058;52.018;4.202;2022-12-29T11:55:16;10.70;;;2.72;;
17864;SDS011;9058;52.018;4.202;2022-12-29T11:57:43;10.80;;;2.40;;
17864;SDS011;9058;52.018;4.202;2022-12-29T12:00:14;13.45;;;2.97;;
17864;SDS011;9058;52.018;4.202;2022-12-29T12:02:42;13.55;;;3.08;;
17864;SDS011;9058;52.018;4.202;2022-12-29T12:05:13;17.67;;;3.63;;
17864;SDS011;9058;52.018;4.202;2022-12-29T12:07:42;18.73;;;4.93;;
17864;SDS011;9058;52.018;4.202;2022-12-29T12:10:12;22.75;;;4.43;;
17864;SDS011;9058;52.018;4.202;2022-12-29T12:12:41;23.48;;;4.60;;
17864;SDS011;9058;52.018;4.202;2022-12-29T12:15:13;28.38;;;6.07;;
17864;SDS011;9058;52.018;4.202;2022-12-29T12:17:44;24.60;;;5.57;;
17864;SDS011;9058;52.018;4.202;2022-12-29T12:20:14;15.65;;;4.10;;
17864;SDS011;9058;52.018;4.202;2022-12-29T12:22:45;15.75;;;3.67;;
17864;SDS011;9058;52.018;4.202;2022-12-29T12:25:16;15.10;;;3.80;;
17864;SDS011;9058;52.018;4.202;2022-12-29T12:27:46;11.80;;;3.08;;
17864;SDS011;9058;52.018;4.202;2022-12-29T12:30:15;14.15;;;2.80;;
17864;SDS011;9058;52.018;4.202;2022-12-29T12:32:44;14.18;;;3.30;;
17864;SDS011;9058;52.018;4.202;2022-12-29T12:35:11;13.65;;;2.80;;
17864;SDS011;9058;52.018;4.202;2022-12-29T12:37:45;19.63;;;3.67;;
17864;SDS011;9058;52.018;4.202;2022-12-29T12:40:21;11.98;;;2.50;;
17864;SDS011;9058;52.018;4.202;2022-12-29T12:42:53;16.75;;;3.05;;
17864;SDS011;9058;52.018;4.202;2022-12-29T12:45:26;14.88;;;3.13;;
17864;SDS011;9058;52.018;4.202;2022-12-29T12:47:59;16.27;;;2.95;;
17864;SDS011;9058;52.018;4.202;2022-12-29T12:50:35;12.00;;;3.40;;
17864;SDS011;9058;52.018;4.202;2022-12-29T12:53:17;16.42;;;2.85;;
17864;SDS011;9058;52.018;4.202;2022-12-29T12:55:48;15.07;;;3.33;;
17864;SDS011;9058;52.018;4.202;2022-12-29T12:58:18;19.40;;;4.22;;
17864;SDS011;9058;52.018;4.202;2022-12-29T13:00:49;22.70;;;3.53;;
17864;SDS011;9058;52.018;4.202;2022-12-29T13:03:21;21.20;;;3.58;;
17864;SDS011;9058;52.018;4.202;2022-12-29T13:05:57;18.15;;;3.67;;
17864;SDS011;9058;52.018;4.202;2022-12-29T13:08:36;13.77;;;3.22;;
17864;SDS011;9058;52.018;4.202;2022-12-29T13:11:10;29.38;;;4.38;;
17864;SDS011;9058;52.018;4.202;2022-12-29T13:13:45;22.60;;;5.03;;
17864;SDS011;9058;52.018;4.202;2022-12-29T13:16:15;21.40;;;3.88;;
17864;SDS011;9058;52.018;4.202;2022-12-29T13:18:46;20.65;;;3.75;;
17864;SDS011;9058;52.018;4.202;2022-12-29T13:21:29;21.55;;;4.13;;
17864;SDS011;9058;52.018;4.202;2022-12-29T13:23:59;17.50;;;3.42;;
17864;SDS011;9058;52.018;4.202;2022-12-29T13:26:29;16.95;;;2.38;;
17864;SDS011;9058;52.018;4.202;2022-12-29T13:28:57;13.85;;;2.95;;
17864;SDS011;9058;52.018;4.202;2022-12-29T13:31:27;13.68;;;3.05;;
17864;SDS011;9058;52.018;4.202;2022-12-29T13:33:57;20.67;;;3.42;;
17864;SDS011;9058;52.018;4.202;2022-12-29T13:36:27;14.07;;;3.60;;
17864;SDS011;9058;52.018;4.202;2022-12-29T13:38:59;10.02;;;2.17;;
17864;SDS011;9058;52.018;4.202;2022-12-29T13:41:29;10.85;;;2.83;;
17864;SDS011;9058;52.018;4.202;2022-12-29T13:43:56;12.55;;;2.78;;
17864;SDS011;9058;52.018;4.202;2022-12-29T13:46:23;12.25;;;2.42;;
17864;SDS011;9058;52.018;4.202;2022-12-29T13:48:52;13.38;;;2.45;;
17864;SDS011;9058;52.018;4.202;2022-12-29T13:51:20;13.48;;;2.80;;
17864;SDS011;9058;52.018;4.202;2022-12-29T13:53:52;14.73;;;2.45;;
17864;SDS011;9058;52.018;4.202;2022-12-29T13:56:24;14.00;;;3.10;;
17864;SDS011;9058;52.018;4.202;2022-12-29T13:58:53;12.23;;;2.10;;
17864;SDS011;9058;52.018;4.202;2022-12-29T14:01:21;12.65;;;2.75;;
17864;SDS011;9058;52.018;4.202;2022-12-29T14:03:48;11.80;;;3.13;;
17864;SDS011;9058;52.018;4.202;2022-12-29T14:06:17;9.75;;;3.10;;
17864;SDS011;9058;52.018;4.202;2022-12-29T14:08:45;15.57;;;2.63;;
17864;SDS011;9058;52.018;4.202;2022-12-29T14:11:13;15.60;;;2.97;;
17864;SDS011;9058;52.018;4.202;2022-12-29T14:13:42;12.10;;;2.70;;
17864;SDS011;9058;52.018;4.202;2022-12-29T14:16:10;9.20;;;2.42;;
17864;SDS011;9058;52.018;4.202;2022-12-29T14:18:41;17.35;;;3.15;;
17864;SDS011;9058;52.018;4.202;2022-12-29T14:21:10;16.05;;;3.30;;
17864;SDS011;9058;52.018;4.202;2022-12-29T14:23:44;10.50;;;2.13;;
17864;SDS011;9058;52.018;4.202;2022-12-29T14:26:14;22.45;;;2.97;;
17864;SDS011;9058;52.018;4.202;2022-12-29T14:28:43;15.40;;;2.58;;
17864;SDS011;9058;52.018;4.202;2022-12-29T14:36:37;10.80;;;3.08;;
17864;SDS011;9058;52.018;4.202;2022-12-29T14:39:18;14.40;;;2.47;;
17864;SDS011;9058;52.018;4.202;2022-12-29T14:42:01;9.35;;;2.88;;
17864;SDS011;9058;52.018;4.202;2022-12-29T14:44:29;13.20;;;2.65;;
17864;SDS011;9058;52.018;4.202;2022-12-29T14:46:56;19.55;;;3.95;;
17864;SDS011;9058;52.018;4.202;2022-12-29T14:49:24;13.77;;;2.42;;
17864;SDS011;9058;52.018;4.202;2022-12-29T14:51:52;8.18;;;1.50;;
17864;SDS011;9058;52.018;4.202;2022-12-29T14:54:34;14.15;;;2.90;;
17864;SDS011;9058;52.018;4.202;2022-12-29T14:57:08;18.05;;;2.60;;
17864;SDS011;9058;52.018;4.202;2022-12-29T14:59:37;12.20;;;2.35;;
17864;SDS011;9058;52.018;4.202;2022-12-29T15:02:04;13.35;;;2.70;;
17864;SDS011;9058;52.018;4.202;2022-12-29T15:04:37;16.45;;;3.58;;
17864;SDS011;9058;52.018;4.202;2022-12-29T15:07:06;15.38;;;2.83;;
17864;SDS011;9058;52.018;4.202;2022-12-29T15:09:35;19.38;;;2.55;;